sensor_id;sensor_type;location;lat;lon;timestamp;temperature;humidity
47861;HTU21D;33620;52.340;5.984;2022-07-29T00:02:19;18.21;61.43
47861;HTU21D;33620;52.340;5.984;2022-07-29T00:04:45;18.17;61.44
47861;HTU21D;33620;52.340;5.984;2022-07-29T00:07:10;18.12;61.48
47861;HTU21D;33620;52.340;5.984;2022-07-29T00:09:36;18.12;61.51
47861;HTU21D;33620;52.340;5.984;2022-07-29T00:12:01;18.12;61.65
47861;HTU21D;33620;52.340;5.984;2022-07-29T00:14:27;18.13;61.57
47861;HTU21D;33620;52.340;5.984;2022-07-29T00:16:53;18.11;61.57
47861;HTU21D;33620;52.340;5.984;2022-07-29T00:19:18;18.10;61.76
47861;HTU21D;33620;52.340;5.984;2022-07-29T00:21:44;18.08;61.70
47861;HTU21D;33620;52.340;5.984;2022-07-29T00:24:09;18.08;61.84
47861;HTU21D;33620;52.340;5.984;2022-07-29T00:26:34;18.06;61.61
47861;HTU21D;33620;52.340;5.984;2022-07-29T00:29:01;17.97;61.96
47861;HTU21D;33620;52.340;5.984;2022-07-29T00:31:27;17.97;62.13
47861;HTU21D;33620;52.340;5.984;2022-07-29T00:33:52;18.02;61.99
47861;HTU21D;33620;52.340;5.984;2022-07-29T00:36:18;18.04;61.92
47861;HTU21D;33620;52.340;5.984;2022-07-29T00:38:43;18.05;61.76
47861;HTU21D;33620;52.340;5.984;2022-07-29T00:41:11;18.05;61.80
47861;HTU21D;33620;52.340;5.984;2022-07-29T00:43:36;18.03;62.01
47861;HTU21D;33620;52.340;5.984;2022-07-29T00:46:02;18.02;61.83
47861;HTU21D;33620;52.340;5.984;2022-07-29T00:48:27;18.02;61.96
47861;HTU21D;33620;52.340;5.984;2022-07-29T00:50:53;17.98;61.84
47861;HTU21D;33620;52.340;5.984;2022-07-29T00:53:19;18.00;61.84
47861;HTU21D;33620;52.340;5.984;2022-07-29T00:55:45;17.97;61.85
47861;HTU21D;33620;52.340;5.984;2022-07-29T00:58:12;17.93;61.93
47861;HTU21D;33620;52.340;5.984;2022-07-29T01:00:38;17.92;62.05
47861;HTU21D;33620;52.340;5.984;2022-07-29T01:03:06;17.92;62.10
47861;HTU21D;33620;52.340;5.984;2022-07-29T01:05:31;17.90;62.04
47861;HTU21D;33620;52.340;5.984;2022-07-29T01:07:57;17.89;62.08
47861;HTU21D;33620;52.340;5.984;2022-07-29T01:10:23;17.89;61.99
47861;HTU21D;33620;52.340;5.984;2022-07-29T01:12:51;17.88;61.92
47861;HTU21D;33620;52.340;5.984;2022-07-29T01:15:18;17.82;61.96
47861;HTU21D;33620;52.340;5.984;2022-07-29T01:18:22;17.81;62.10
47861;HTU21D;33620;52.340;5.984;2022-07-29T01:20:58;17.77;62.27
47861;HTU21D;33620;52.340;5.984;2022-07-29T01:34:25;17.68;62.34
47861;HTU21D;33620;52.340;5.984;2022-07-29T01:37:01;17.67;62.31
47861;HTU21D;33620;52.340;5.984;2022-07-29T01:39:31;17.68;62.29
47861;HTU21D;33620;52.340;5.984;2022-07-29T01:42:27;17.67;62.34
47861;HTU21D;33620;52.340;5.984;2022-07-29T01:47:42;17.62;62.47
47861;HTU21D;33620;52.340;5.984;2022-07-29T01:50:11;17.65;62.49
47861;HTU21D;33620;52.340;5.984;2022-07-29T01:53:00;17.67;62.21
47861;HTU21D;33620;52.340;5.984;2022-07-29T01:55:29;17.67;62.19
47861;HTU21D;33620;52.340;5.984;2022-07-29T01:57:57;17.65;62.20
47861;HTU21D;33620;52.340;5.984;2022-07-29T02:00:25;17.65;62.24
47861;HTU21D;33620;52.340;5.984;2022-07-29T02:02:53;17.61;62.31
47861;HTU21D;33620;52.340;5.984;2022-07-29T02:05:21;17.61;62.25
47861;HTU21D;33620;52.340;5.984;2022-07-29T02:07:49;17.60;62.18
47861;HTU21D;33620;52.340;5.984;2022-07-29T02:10:18;17.59;62.31
47861;HTU21D;33620;52.340;5.984;2022-07-29T02:12:45;17.62;62.27
47861;HTU21D;33620;52.340;5.984;2022-07-29T02:15:11;17.63;61.99
47861;HTU21D;33620;52.340;5.984;2022-07-29T02:17:46;17.59;61.92
47861;HTU21D;33620;52.340;5.984;2022-07-29T02:20:14;17.58;62.13
47861;HTU21D;33620;52.340;5.984;2022-07-29T02:22:41;17.54;62.05
47861;HTU21D;33620;52.340;5.984;2022-07-29T02:25:10;17.52;62.23
47861;HTU21D;33620;52.340;5.984;2022-07-29T02:27:37;17.52;62.15
47861;HTU21D;33620;52.340;5.984;2022-07-29T02:30:04;17.52;62.06
47861;HTU21D;33620;52.340;5.984;2022-07-29T02:32:31;17.49;62.06
47861;HTU21D;33620;52.340;5.984;2022-07-29T02:35:00;17.52;62.03
47861;HTU21D;33620;52.340;5.984;2022-07-29T02:37:27;17.52;62.00
47861;HTU21D;33620;52.340;5.984;2022-07-29T02:39:54;17.53;61.89
47861;HTU21D;33620;52.340;5.984;2022-07-29T02:42:22;17.54;61.86
47861;HTU21D;33620;52.340;5.984;2022-07-29T02:44:49;17.55;61.71
47861;HTU21D;33620;52.340;5.984;2022-07-29T02:47:37;17.54;62.21
47861;HTU21D;33620;52.340;5.984;2022-07-29T02:50:33;17.55;62.41
47861;HTU21D;33620;52.340;5.984;2022-07-29T02:53:06;17.54;62.38
47861;HTU21D;33620;52.340;5.984;2022-07-29T02:55:57;17.58;61.92
47861;HTU21D;33620;52.340;5.984;2022-07-29T02:58:32;17.58;61.81
47861;HTU21D;33620;52.340;5.984;2022-07-29T03:00:59;17.58;61.97
47861;HTU21D;33620;52.340;5.984;2022-07-29T03:03:30;17.59;61.94
47861;HTU21D;33620;52.340;5.984;2022-07-29T03:05:58;17.59;61.63
47861;HTU21D;33620;52.340;5.984;2022-07-29T03:08:25;17.59;61.67
47861;HTU21D;33620;52.340;5.984;2022-07-29T03:10:52;17.59;61.83
47861;HTU21D;33620;52.340;5.984;2022-07-29T03:13:19;17.58;61.62
47861;HTU21D;33620;52.340;5.984;2022-07-29T03:15:45;17.58;61.64
47861;HTU21D;33620;52.340;5.984;2022-07-29T03:18:11;17.56;61.73
47861;HTU21D;33620;52.340;5.984;2022-07-29T03:20:37;17.53;61.79
47861;HTU21D;33620;52.340;5.984;2022-07-29T03:23:03;17.52;61.89
47861;HTU21D;33620;52.340;5.984;2022-07-29T03:25:29;17.52;62.28
47861;HTU21D;33620;52.340;5.984;2022-07-29T03:27:55;17.49;62.18
47861;HTU21D;33620;52.340;5.984;2022-07-29T03:30:21;17.48;62.69
47861;HTU21D;33620;52.340;5.984;2022-07-29T03:32:47;17.47;62.35
47861;HTU21D;33620;52.340;5.984;2022-07-29T03:35:12;17.45;62.71
47861;HTU21D;33620;52.340;5.984;2022-07-29T03:37:38;17.46;62.78
47861;HTU21D;33620;52.340;5.984;2022-07-29T03:40:07;17.45;62.60
47861;HTU21D;33620;52.340;5.984;2022-07-29T03:42:33;17.48;62.46
47861;HTU21D;33620;52.340;5.984;2022-07-29T03:45:06;17.51;62.18
47861;HTU21D;33620;52.340;5.984;2022-07-29T03:47:34;17.48;62.34
47861;HTU21D;33620;52.340;5.984;2022-07-29T03:50:05;17.49;62.50
47861;HTU21D;33620;52.340;5.984;2022-07-29T03:52:31;17.49;62.44
47861;HTU21D;33620;52.340;5.984;2022-07-29T03:54:56;17.49;62.66
47861;HTU21D;33620;52.340;5.984;2022-07-29T03:57:24;17.48;62.76
47861;HTU21D;33620;52.340;5.984;2022-07-29T03:59:53;17.47;62.37
47861;HTU21D;33620;52.340;5.984;2022-07-29T04:02:18;17.46;62.32
47861;HTU21D;33620;52.340;5.984;2022-07-29T04:04:44;17.46;62.53
47861;HTU21D;33620;52.340;5.984;2022-07-29T04:07:14;17.44;62.36
47861;HTU21D;33620;52.340;5.984;2022-07-29T04:09:40;17.43;62.31
47861;HTU21D;33620;52.340;5.984;2022-07-29T04:12:06;17.40;62.44
47861;HTU21D;33620;52.340;5.984;2022-07-29T04:14:32;17.40;62.59
47861;HTU21D;33620;52.340;5.984;2022-07-29T04:16:58;17.39;62.67
47861;HTU21D;33620;52.340;5.984;2022-07-29T04:19:23;17.38;62.70
47861;HTU21D;33620;52.340;5.984;2022-07-29T04:21:49;17.37;62.72
47861;HTU21D;33620;52.340;5.984;2022-07-29T04:24:14;17.36;62.68
47861;HTU21D;33620;52.340;5.984;2022-07-29T04:26:40;17.35;62.68
47861;HTU21D;33620;52.340;5.984;2022-07-29T04:29:05;17.33;62.73
47861;HTU21D;33620;52.340;5.984;2022-07-29T04:31:31;17.34;62.98
47861;HTU21D;33620;52.340;5.984;2022-07-29T04:33:56;17.33;63.12
47861;HTU21D;33620;52.340;5.984;2022-07-29T04:36:21;17.33;63.13
47861;HTU21D;33620;52.340;5.984;2022-07-29T04:38:47;17.33;63.27
47861;HTU21D;33620;52.340;5.984;2022-07-29T04:41:12;17.30;63.82
47861;HTU21D;33620;52.340;5.984;2022-07-29T04:43:38;17.29;63.61
47861;HTU21D;33620;52.340;5.984;2022-07-29T04:46:05;17.28;63.61
47861;HTU21D;33620;52.340;5.984;2022-07-29T04:48:31;17.24;63.61
47861;HTU21D;33620;52.340;5.984;2022-07-29T04:50:57;17.18;63.90
47861;HTU21D;33620;52.340;5.984;2022-07-29T04:53:22;17.14;65.11
47861;HTU21D;33620;52.340;5.984;2022-07-29T04:55:48;17.05;67.15
47861;HTU21D;33620;52.340;5.984;2022-07-29T04:58:13;16.98;68.71
47861;HTU21D;33620;52.340;5.984;2022-07-29T05:00:39;16.93;69.84
47861;HTU21D;33620;52.340;5.984;2022-07-29T05:03:05;16.86;70.93
47861;HTU21D;33620;52.340;5.984;2022-07-29T05:05:30;16.76;72.35
47861;HTU21D;33620;52.340;5.984;2022-07-29T05:07:56;16.69;73.24
47861;HTU21D;33620;52.340;5.984;2022-07-29T05:10:21;16.67;73.30
47861;HTU21D;33620;52.340;5.984;2022-07-29T05:12:47;16.66;72.69
47861;HTU21D;33620;52.340;5.984;2022-07-29T05:15:13;16.65;72.01
47861;HTU21D;33620;52.340;5.984;2022-07-29T05:17:38;16.61;72.18
47861;HTU21D;33620;52.340;5.984;2022-07-29T05:20:05;16.60;72.61
47861;HTU21D;33620;52.340;5.984;2022-07-29T05:22:30;16.58;72.03
47861;HTU21D;33620;52.340;5.984;2022-07-29T05:24:56;16.54;72.38
47861;HTU21D;33620;52.340;5.984;2022-07-29T05:27:21;16.51;72.99
47861;HTU21D;33620;52.340;5.984;2022-07-29T05:29:47;16.49;72.65
47861;HTU21D;33620;52.340;5.984;2022-07-29T05:32:12;16.49;73.14
47861;HTU21D;33620;52.340;5.984;2022-07-29T05:34:38;16.46;73.15
47861;HTU21D;33620;52.340;5.984;2022-07-29T05:37:03;16.43;73.52
47861;HTU21D;33620;52.340;5.984;2022-07-29T05:39:28;16.35;73.85
47861;HTU21D;33620;52.340;5.984;2022-07-29T05:41:54;16.36;74.03
47861;HTU21D;33620;52.340;5.984;2022-07-29T05:44:19;16.34;74.43
47861;HTU21D;33620;52.340;5.984;2022-07-29T05:46:44;16.34;75.44
47861;HTU21D;33620;52.340;5.984;2022-07-29T05:49:10;16.32;75.71
47861;HTU21D;33620;52.340;5.984;2022-07-29T05:51:35;16.30;75.42
47861;HTU21D;33620;52.340;5.984;2022-07-29T05:54:01;16.32;76.16
47861;HTU21D;33620;52.340;5.984;2022-07-29T05:56:27;16.35;75.70
47861;HTU21D;33620;52.340;5.984;2022-07-29T05:58:52;16.41;75.76
47861;HTU21D;33620;52.340;5.984;2022-07-29T06:01:18;16.44;76.64
47861;HTU21D;33620;52.340;5.984;2022-07-29T06:03:44;16.45;76.03
47861;HTU21D;33620;52.340;5.984;2022-07-29T06:06:10;16.49;76.05
47861;HTU21D;33620;52.340;5.984;2022-07-29T06:08:35;16.52;75.31
47861;HTU21D;33620;52.340;5.984;2022-07-29T06:11:02;16.55;74.64
47861;HTU21D;33620;52.340;5.984;2022-07-29T06:13:27;16.58;74.38
47861;HTU21D;33620;52.340;5.984;2022-07-29T06:15:53;16.58;74.40
47861;HTU21D;33620;52.340;5.984;2022-07-29T06:18:18;16.58;74.02
47861;HTU21D;33620;52.340;5.984;2022-07-29T06:20:45;16.59;74.48
47861;HTU21D;33620;52.340;5.984;2022-07-29T06:23:11;16.61;74.67
47861;HTU21D;33620;52.340;5.984;2022-07-29T06:25:36;16.58;74.89
47861;HTU21D;33620;52.340;5.984;2022-07-29T06:28:02;16.60;75.42
47861;HTU21D;33620;52.340;5.984;2022-07-29T06:30:28;16.65;75.13
47861;HTU21D;33620;52.340;5.984;2022-07-29T06:32:54;16.74;74.79
47861;HTU21D;33620;52.340;5.984;2022-07-29T06:35:20;16.78;74.56
47861;HTU21D;33620;52.340;5.984;2022-07-29T06:37:45;16.78;73.57
47861;HTU21D;33620;52.340;5.984;2022-07-29T06:40:11;16.78;74.12
47861;HTU21D;33620;52.340;5.984;2022-07-29T06:42:54;16.80;73.28
47861;HTU21D;33620;52.340;5.984;2022-07-29T06:45:20;16.80;73.16
47861;HTU21D;33620;52.340;5.984;2022-07-29T06:47:45;16.84;72.92
47861;HTU21D;33620;52.340;5.984;2022-07-29T06:50:11;16.87;73.52
47861;HTU21D;33620;52.340;5.984;2022-07-29T06:52:38;16.94;73.55
47861;HTU21D;33620;52.340;5.984;2022-07-29T06:55:04;17.01;74.34
47861;HTU21D;33620;52.340;5.984;2022-07-29T06:57:30;17.02;73.62
47861;HTU21D;33620;52.340;5.984;2022-07-29T06:59:58;17.05;73.35
47861;HTU21D;33620;52.340;5.984;2022-07-29T07:02:23;17.07;73.90
47861;HTU21D;33620;52.340;5.984;2022-07-29T07:04:49;17.08;73.47
47861;HTU21D;33620;52.340;5.984;2022-07-29T07:07:14;17.11;73.47
47861;HTU21D;33620;52.340;5.984;2022-07-29T07:09:40;17.18;73.25
47861;HTU21D;33620;52.340;5.984;2022-07-29T07:12:05;17.20;73.27
47861;HTU21D;33620;52.340;5.984;2022-07-29T07:14:31;17.24;73.28
47861;HTU21D;33620;52.340;5.984;2022-07-29T07:16:56;17.26;73.77
47861;HTU21D;33620;52.340;5.984;2022-07-29T07:19:22;17.24;72.93
47861;HTU21D;33620;52.340;5.984;2022-07-29T07:21:47;17.20;72.29
47861;HTU21D;33620;52.340;5.984;2022-07-29T07:24:12;17.21;72.83
47861;HTU21D;33620;52.340;5.984;2022-07-29T07:26:38;17.21;72.87
47861;HTU21D;33620;52.340;5.984;2022-07-29T07:29:05;17.21;72.09
47861;HTU21D;33620;52.340;5.984;2022-07-29T07:31:31;17.21;72.61
47861;HTU21D;33620;52.340;5.984;2022-07-29T07:33:56;17.20;72.54
47861;HTU21D;33620;52.340;5.984;2022-07-29T07:36:23;17.19;72.28
47861;HTU21D;33620;52.340;5.984;2022-07-29T07:38:48;17.20;72.27
47861;HTU21D;33620;52.340;5.984;2022-07-29T07:41:14;17.19;71.76
47861;HTU21D;33620;52.340;5.984;2022-07-29T07:43:39;17.23;72.55
47861;HTU21D;33620;52.340;5.984;2022-07-29T07:46:05;17.28;72.90
47861;HTU21D;33620;52.340;5.984;2022-07-29T07:48:30;17.31;71.87
47861;HTU21D;33620;52.340;5.984;2022-07-29T07:50:56;17.32;71.93
47861;HTU21D;33620;52.340;5.984;2022-07-29T07:53:21;17.38;71.84
47861;HTU21D;33620;52.340;5.984;2022-07-29T07:55:47;17.45;72.47
47861;HTU21D;33620;52.340;5.984;2022-07-29T07:58:12;17.52;72.96
47861;HTU21D;33620;52.340;5.984;2022-07-29T08:00:38;17.58;72.04
47861;HTU21D;33620;52.340;5.984;2022-07-29T08:03:03;17.61;71.56
47861;HTU21D;33620;52.340;5.984;2022-07-29T08:05:29;17.66;70.48
47861;HTU21D;33620;52.340;5.984;2022-07-29T08:07:54;17.68;71.27
47861;HTU21D;33620;52.340;5.984;2022-07-29T08:10:20;17.75;71.01
47861;HTU21D;33620;52.340;5.984;2022-07-29T08:13:05;17.78;70.16
47861;HTU21D;33620;52.340;5.984;2022-07-29T08:15:32;17.83;70.48
47861;HTU21D;33620;52.340;5.984;2022-07-29T08:17:57;17.88;69.84
47861;HTU21D;33620;52.340;5.984;2022-07-29T08:20:23;17.96;69.32
47861;HTU21D;33620;52.340;5.984;2022-07-29T08:22:48;18.04;70.10
47861;HTU21D;33620;52.340;5.984;2022-07-29T08:25:13;18.12;70.42
47861;HTU21D;33620;52.340;5.984;2022-07-29T08:27:39;18.23;69.84
47861;HTU21D;33620;52.340;5.984;2022-07-29T08:30:05;18.32;69.03
47861;HTU21D;33620;52.340;5.984;2022-07-29T08:32:30;18.35;68.65
47861;HTU21D;33620;52.340;5.984;2022-07-29T08:34:56;18.41;68.87
47861;HTU21D;33620;52.340;5.984;2022-07-29T08:37:22;18.49;68.89
47861;HTU21D;33620;52.340;5.984;2022-07-29T08:39:47;18.52;67.94
47861;HTU21D;33620;52.340;5.984;2022-07-29T08:42:13;18.57;68.03
47861;HTU21D;33620;52.340;5.984;2022-07-29T08:44:39;18.64;67.85
47861;HTU21D;33620;52.340;5.984;2022-07-29T08:47:04;18.65;68.83
47861;HTU21D;33620;52.340;5.984;2022-07-29T08:49:32;18.67;68.38
47861;HTU21D;33620;52.340;5.984;2022-07-29T08:51:58;18.70;68.13
47861;HTU21D;33620;52.340;5.984;2022-07-29T08:54:25;18.71;67.48
47861;HTU21D;33620;52.340;5.984;2022-07-29T08:56:51;18.73;68.08
47861;HTU21D;33620;52.340;5.984;2022-07-29T08:59:19;18.77;68.34
47861;HTU21D;33620;52.340;5.984;2022-07-29T09:01:46;18.81;68.10
47861;HTU21D;33620;52.340;5.984;2022-07-29T09:04:13;18.86;68.00
47861;HTU21D;33620;52.340;5.984;2022-07-29T09:06:44;18.95;69.10
47861;HTU21D;33620;52.340;5.984;2022-07-29T09:09:10;19.03;69.15
47861;HTU21D;33620;52.340;5.984;2022-07-29T09:11:35;19.11;68.99
47861;HTU21D;33620;52.340;5.984;2022-07-29T09:14:01;19.17;69.42
47861;HTU21D;33620;52.340;5.984;2022-07-29T09:16:44;19.26;68.64
47861;HTU21D;33620;52.340;5.984;2022-07-29T09:19:33;19.35;67.52
47861;HTU21D;33620;52.340;5.984;2022-07-29T09:22:04;19.40;67.64
47861;HTU21D;33620;52.340;5.984;2022-07-29T09:24:40;19.41;67.27
47861;HTU21D;33620;52.340;5.984;2022-07-29T09:27:11;19.44;67.18
47861;HTU21D;33620;52.340;5.984;2022-07-29T09:29:42;19.46;66.93
47861;HTU21D;33620;52.340;5.984;2022-07-29T09:32:09;19.47;65.95
47861;HTU21D;33620;52.340;5.984;2022-07-29T09:34:35;19.47;66.62
47861;HTU21D;33620;52.340;5.984;2022-07-29T09:37:01;19.50;65.65
47861;HTU21D;33620;52.340;5.984;2022-07-29T09:39:34;19.53;66.50
47861;HTU21D;33620;52.340;5.984;2022-07-29T09:42:06;19.58;66.19
47861;HTU21D;33620;52.340;5.984;2022-07-29T09:44:48;19.60;66.35
47861;HTU21D;33620;52.340;5.984;2022-07-29T09:47:17;19.66;66.70
47861;HTU21D;33620;52.340;5.984;2022-07-29T09:49:56;19.68;67.26
47861;HTU21D;33620;52.340;5.984;2022-07-29T09:52:26;19.72;68.26
47861;HTU21D;33620;52.340;5.984;2022-07-29T09:54:52;19.75;67.62
47861;HTU21D;33620;52.340;5.984;2022-07-29T09:57:26;19.73;67.62
47861;HTU21D;33620;52.340;5.984;2022-07-29T10:00:19;19.77;67.68
47861;HTU21D;33620;52.340;5.984;2022-07-29T10:02:46;19.79;67.71
47861;HTU21D;33620;52.340;5.984;2022-07-29T10:05:23;19.83;67.81
47861;HTU21D;33620;52.340;5.984;2022-07-29T10:07:54;19.81;65.99
47861;HTU21D;33620;52.340;5.984;2022-07-29T10:10:33;19.82;65.93
47861;HTU21D;33620;52.340;5.984;2022-07-29T10:13:08;19.85;66.19
47861;HTU21D;33620;52.340;5.984;2022-07-29T10:15:35;19.89;66.13
47861;HTU21D;33620;52.340;5.984;2022-07-29T10:18:06;19.96;66.27
47861;HTU21D;33620;52.340;5.984;2022-07-29T10:20:32;20.00;65.89
47861;HTU21D;33620;52.340;5.984;2022-07-29T10:22:58;20.06;65.83
47861;HTU21D;33620;52.340;5.984;2022-07-29T10:25:24;20.10;64.86
47861;HTU21D;33620;52.340;5.984;2022-07-29T10:27:50;20.10;64.97
47861;HTU21D;33620;52.340;5.984;2022-07-29T10:30:17;20.12;65.24
47861;HTU21D;33620;52.340;5.984;2022-07-29T10:33:26;20.16;64.55
47861;HTU21D;33620;52.340;5.984;2022-07-29T10:38:41;20.28;65.14
47861;HTU21D;33620;52.340;5.984;2022-07-29T10:44:21;20.28;64.09
47861;HTU21D;33620;52.340;5.984;2022-07-29T10:46:47;20.27;64.05
47861;HTU21D;33620;52.340;5.984;2022-07-29T10:49:15;20.25;63.46
47861;HTU21D;33620;52.340;5.984;2022-07-29T10:54:15;20.22;63.55
47861;HTU21D;33620;52.340;5.984;2022-07-29T10:56:41;20.27;63.39
47861;HTU21D;33620;52.340;5.984;2022-07-29T10:59:22;20.35;63.73
47861;HTU21D;33620;52.340;5.984;2022-07-29T11:01:50;20.43;63.57
47861;HTU21D;33620;52.340;5.984;2022-07-29T11:04:58;20.58;63.56
47861;HTU21D;33620;52.340;5.984;2022-07-29T11:09:30;20.79;62.15
47861;HTU21D;33620;52.340;5.984;2022-07-29T11:11:57;20.78;62.28
47861;HTU21D;33620;52.340;5.984;2022-07-29T11:17:19;20.96;61.65
47861;HTU21D;33620;52.340;5.984;2022-07-29T11:19:45;21.16;61.99
47861;HTU21D;33620;52.340;5.984;2022-07-29T11:22:11;21.33;61.87
47861;HTU21D;33620;52.340;5.984;2022-07-29T11:24:37;21.39;61.99
47861;HTU21D;33620;52.340;5.984;2022-07-29T11:29:40;21.72;60.33
47861;HTU21D;33620;52.340;5.984;2022-07-29T11:32:11;21.77;58.97
47861;HTU21D;33620;52.340;5.984;2022-07-29T11:34:37;21.74;58.74
47861;HTU21D;33620;52.340;5.984;2022-07-29T11:44:54;22.12;58.02
47861;HTU21D;33620;52.340;5.984;2022-07-29T11:47:22;22.24;56.65
47861;HTU21D;33620;52.340;5.984;2022-07-29T11:49:48;22.28;57.58
47861;HTU21D;33620;52.340;5.984;2022-07-29T11:52:15;22.36;55.84
47861;HTU21D;33620;52.340;5.984;2022-07-29T11:54:42;22.39;56.80
47861;HTU21D;33620;52.340;5.984;2022-07-29T11:57:08;22.44;56.04
47861;HTU21D;33620;52.340;5.984;2022-07-29T11:59:41;22.55;56.16
47861;HTU21D;33620;52.340;5.984;2022-07-29T12:02:10;22.65;55.63
47861;HTU21D;33620;52.340;5.984;2022-07-29T12:07:14;22.77;55.94
47861;HTU21D;33620;52.340;5.984;2022-07-29T12:09:40;22.87;55.19
47861;HTU21D;33620;52.340;5.984;2022-07-29T12:12:05;22.96;55.78
47861;HTU21D;33620;52.340;5.984;2022-07-29T12:14:32;23.05;54.03
47861;HTU21D;33620;52.340;5.984;2022-07-29T12:16:59;23.09;54.08
47861;HTU21D;33620;52.340;5.984;2022-07-29T12:19:25;23.12;51.95
47861;HTU21D;33620;52.340;5.984;2022-07-29T12:21:52;23.03;56.22
47861;HTU21D;33620;52.340;5.984;2022-07-29T12:24:18;23.15;54.64
47861;HTU21D;33620;52.340;5.984;2022-07-29T12:29:16;23.34;51.91
47861;HTU21D;33620;52.340;5.984;2022-07-29T12:31:42;23.50;52.00
47861;HTU21D;33620;52.340;5.984;2022-07-29T12:34:08;23.67;50.79
47861;HTU21D;33620;52.340;5.984;2022-07-29T12:36:34;23.75;49.99
47861;HTU21D;33620;52.340;5.984;2022-07-29T12:39:00;23.85;49.21
47861;HTU21D;33620;52.340;5.984;2022-07-29T12:41:28;23.92;48.63
47861;HTU21D;33620;52.340;5.984;2022-07-29T12:43:54;23.97;49.02
47861;HTU21D;33620;52.340;5.984;2022-07-29T12:46:19;24.05;49.23
47861;HTU21D;33620;52.340;5.984;2022-07-29T12:48:53;24.13;48.42
47861;HTU21D;33620;52.340;5.984;2022-07-29T12:51:32;24.21;46.93
47861;HTU21D;33620;52.340;5.984;2022-07-29T12:54:07;24.26;46.63
47861;HTU21D;33620;52.340;5.984;2022-07-29T12:56:33;24.38;46.62
47861;HTU21D;33620;52.340;5.984;2022-07-29T12:58:58;24.45;46.35
47861;HTU21D;33620;52.340;5.984;2022-07-29T13:01:23;24.56;47.35
47861;HTU21D;33620;52.340;5.984;2022-07-29T13:09:13;24.82;45.28
47861;HTU21D;33620;52.340;5.984;2022-07-29T13:11:41;24.83;42.89
47861;HTU21D;33620;52.340;5.984;2022-07-29T13:14:09;24.86;44.44
47861;HTU21D;33620;52.340;5.984;2022-07-29T13:16:35;24.95;42.92
47861;HTU21D;33620;52.340;5.984;2022-07-29T13:19:09;24.97;43.23
47861;HTU21D;33620;52.340;5.984;2022-07-29T13:21:36;24.97;42.11
47861;HTU21D;33620;52.340;5.984;2022-07-29T13:24:02;25.01;44.00
47861;HTU21D;33620;52.340;5.984;2022-07-29T13:26:27;25.09;43.55
47861;HTU21D;33620;52.340;5.984;2022-07-29T13:28:53;25.19;44.45
47861;HTU21D;33620;52.340;5.984;2022-07-29T13:31:19;25.22;43.47
47861;HTU21D;33620;52.340;5.984;2022-07-29T13:33:45;25.28;44.03
47861;HTU21D;33620;52.340;5.984;2022-07-29T13:36:10;25.35;43.35
47861;HTU21D;33620;52.340;5.984;2022-07-29T13:38:35;25.40;44.80
47861;HTU21D;33620;52.340;5.984;2022-07-29T13:41:01;25.46;43.72
47861;HTU21D;33620;52.340;5.984;2022-07-29T13:43:26;25.53;43.96
47861;HTU21D;33620;52.340;5.984;2022-07-29T13:45:52;25.61;44.11
47861;HTU21D;33620;52.340;5.984;2022-07-29T13:48:17;25.57;42.91
47861;HTU21D;33620;52.340;5.984;2022-07-29T13:50:42;25.57;43.03
47861;HTU21D;33620;52.340;5.984;2022-07-29T13:53:08;25.65;44.12
47861;HTU21D;33620;52.340;5.984;2022-07-29T13:55:33;25.74;43.32
47861;HTU21D;33620;52.340;5.984;2022-07-29T13:57:59;25.77;43.22
47861;HTU21D;33620;52.340;5.984;2022-07-29T14:00:24;25.76;41.45
47861;HTU21D;33620;52.340;5.984;2022-07-29T14:02:51;25.68;41.84
47861;HTU21D;33620;52.340;5.984;2022-07-29T14:05:17;25.72;41.68
47861;HTU21D;33620;52.340;5.984;2022-07-29T14:07:42;25.73;40.71
47861;HTU21D;33620;52.340;5.984;2022-07-29T14:10:08;25.72;41.11
47861;HTU21D;33620;52.340;5.984;2022-07-29T14:12:34;25.76;42.48
47861;HTU21D;33620;52.340;5.984;2022-07-29T14:14:59;25.81;44.73
47861;HTU21D;33620;52.340;5.984;2022-07-29T14:17:24;25.89;42.09
47861;HTU21D;33620;52.340;5.984;2022-07-29T14:19:50;26.02;43.55
47861;HTU21D;33620;52.340;5.984;2022-07-29T14:22:15;26.07;41.88
47861;HTU21D;33620;52.340;5.984;2022-07-29T14:24:40;26.15;44.49
47861;HTU21D;33620;52.340;5.984;2022-07-29T14:27:07;26.32;43.48
47861;HTU21D;33620;52.340;5.984;2022-07-29T14:29:33;26.36;42.84
47861;HTU21D;33620;52.340;5.984;2022-07-29T14:31:58;26.38;42.71
47861;HTU21D;33620;52.340;5.984;2022-07-29T14:34:24;26.28;43.02
47861;HTU21D;33620;52.340;5.984;2022-07-29T14:36:49;26.27;43.78
47861;HTU21D;33620;52.340;5.984;2022-07-29T14:39:15;26.34;43.07
47861;HTU21D;33620;52.340;5.984;2022-07-29T14:41:41;26.39;42.52
47861;HTU21D;33620;52.340;5.984;2022-07-29T14:44:07;26.45;42.92
47861;HTU21D;33620;52.340;5.984;2022-07-29T14:46:32;26.54;43.27
47861;HTU21D;33620;52.340;5.984;2022-07-29T14:48:57;26.53;41.50
47861;HTU21D;33620;52.340;5.984;2022-07-29T14:51:23;26.43;41.80
47861;HTU21D;33620;52.340;5.984;2022-07-29T14:53:48;26.46;41.85
47861;HTU21D;33620;52.340;5.984;2022-07-29T14:56:13;26.52;40.88
47861;HTU21D;33620;52.340;5.984;2022-07-29T14:58:39;26.54;41.27
47861;HTU21D;33620;52.340;5.984;2022-07-29T15:01:05;26.50;40.49
47861;HTU21D;33620;52.340;5.984;2022-07-29T15:03:31;26.40;41.42
47861;HTU21D;33620;52.340;5.984;2022-07-29T15:05:56;26.37;41.04
47861;HTU21D;33620;52.340;5.984;2022-07-29T15:08:21;26.43;41.02
47861;HTU21D;33620;52.340;5.984;2022-07-29T15:10:47;26.35;40.24
47861;HTU21D;33620;52.340;5.984;2022-07-29T15:13:12;26.36;40.81
47861;HTU21D;33620;52.340;5.984;2022-07-29T15:15:38;26.35;41.22
47861;HTU21D;33620;52.340;5.984;2022-07-29T15:18:04;26.39;40.59
47861;HTU21D;33620;52.340;5.984;2022-07-29T15:20:29;26.40;40.68
47861;HTU21D;33620;52.340;5.984;2022-07-29T15:22:55;26.49;41.45
47861;HTU21D;33620;52.340;5.984;2022-07-29T15:25:21;26.54;40.98
47861;HTU21D;33620;52.340;5.984;2022-07-29T15:27:47;26.60;40.17
47861;HTU21D;33620;52.340;5.984;2022-07-29T15:30:12;26.58;41.90
47861;HTU21D;33620;52.340;5.984;2022-07-29T15:32:40;26.67;40.93
47861;HTU21D;33620;52.340;5.984;2022-07-29T15:35:05;26.70;40.38
47861;HTU21D;33620;52.340;5.984;2022-07-29T15:37:31;26.72;40.62
47861;HTU21D;33620;52.340;5.984;2022-07-29T15:39:58;26.77;41.62
47861;HTU21D;33620;52.340;5.984;2022-07-29T15:42:24;26.73;40.39
47861;HTU21D;33620;52.340;5.984;2022-07-29T15:44:49;26.71;40.14
47861;HTU21D;33620;52.340;5.984;2022-07-29T15:47:15;26.67;40.42
47861;HTU21D;33620;52.340;5.984;2022-07-29T15:49:41;26.77;40.71
47861;HTU21D;33620;52.340;5.984;2022-07-29T15:52:08;26.81;41.42
47861;HTU21D;33620;52.340;5.984;2022-07-29T15:54:36;26.82;39.04
47861;HTU21D;33620;52.340;5.984;2022-07-29T15:57:03;26.72;40.23
47861;HTU21D;33620;52.340;5.984;2022-07-29T15:59:29;26.77;41.00
47861;HTU21D;33620;52.340;5.984;2022-07-29T16:01:55;26.67;40.65
47861;HTU21D;33620;52.340;5.984;2022-07-29T16:04:20;26.54;41.33
47861;HTU21D;33620;52.340;5.984;2022-07-29T16:06:47;26.45;41.23